Flight Track Log - Related Links

Times and Time Zones

All times are in EDT time to prevent confusion due to time zone crossing. See the SWA3497 flight status page for this flight to view local times or setup timezone preferences in your user account.

Time Position Orientation Groundspeed Altitude Reporting Facility
EDT Latitude Longitude Course Direction KTS MPH feet Rate Location/Type
Fri 09:02:09 AM 28.4000 -81.3000 139° Southeast 160 184 700  Level Orlando TRACON
Fri 09:02:40 AM 28.3833 -81.2833 139° Southeast 159 183 1,700 2,041 Climbing Orlando TRACON
Fri 09:03:46 AM 28.3500 -81.2333 127° Southeast 210 242 4,000 1,952 Climbing Orlando TRACON
Fri 09:04:46 AM 28.4000 -81.1833 41° Northeast 286 329 5,800 2,430 Climbing Orlando TRACON
Fri 09:07:06 AM 28.5756 -81.2425 344° North 305 351 12,100 2,550 Climbing Jacksonville Center
Fri 09:08:06 AM 28.6761 -81.2739 345° North 334 384 14,300 1,950 Climbing Jacksonville Center
Fri 09:09:06 AM 28.7850 -81.3031 347° North 372 428 16,000 1,600 Climbing Jacksonville Center
Fri 09:10:06 AM 28.9042 -81.3344 347° North 396 456 17,500 1,900 Climbing Jacksonville Center
Fri 09:11:06 AM 28.9986 -81.3636 345° North 396 456 19,800 2,250 Climbing Jacksonville Center
Fri 09:12:06 AM 29.1094 -81.3953 346° North 401 461 22,000 2,100 Climbing Jacksonville Center
Fri 09:13:06 AM 29.2267 -81.4056 356° North 407 468 24,000 2,000 Climbing Jacksonville Center
Fri 09:14:06 AM 29.3478 -81.4156 356° North 418 481 26,000 1,900 Climbing Jacksonville Center
Fri 09:15:06 AM 29.4731 -81.4256 356° North 435 501 27,800 1,750 Climbing Jacksonville Center
Fri 09:16:06 AM 29.5964 -81.4403 354° North 446 513 29,500 1,950 Climbing Jacksonville Center
Fri 09:17:06 AM 29.7239 -81.4506 356° North 446 513 31,700 1,750 Climbing Jacksonville Center
Fri 09:18:06 AM 29.8450 -81.4631 355° North 446 513 33,000 950 Climbing Jacksonville Center
Fri 09:19:06 AM 29.9706 -81.4756 355° North 446 513 33,600 1,100 Climbing Jacksonville Center
Fri 09:20:06 AM 30.0939 -81.4858 356° North 446 513 35,200 1,700 Climbing Jacksonville Center
Fri 09:21:06 AM 30.2172 -81.4983 355° North 446 513 37,000 900 Climbing Jacksonville Center
Fri 09:22:06 AM 30.3383 -81.5086 356° North 440 506 37,000  Level Jacksonville Center
Fri 09:23:06 AM 30.4553 -81.4997 North 429 494 37,000  Level Jacksonville Center
Fri 09:24:06 AM 30.5867 -81.4906 North 423 487 37,000  Level Jacksonville Center
Fri 09:25:06 AM 30.7033 -81.4839 North 423 487 37,000  Level Jacksonville Center
Fri 09:26:06 AM 30.8222 -81.4725 North 423 487 37,000  Level Jacksonville Center
Fri 09:27:06 AM 30.9261 -81.4225 22° Northeast 402 463 37,000  Level Jacksonville Center
Fri 09:28:06 AM 31.0256 -81.3581 29° Northeast 402 463 37,000  Level Jacksonville Center
Fri 09:29:06 AM 31.1250 -81.2883 31° Northeast 403 464 37,000  Level Jacksonville Center
Fri 09:30:06 AM 31.2244 -81.2236 29° Northeast 409 471 37,000  Level Jacksonville Center
Fri 09:31:06 AM 31.3217 -81.1536 32° Northeast 409 471 37,000  Level Jacksonville Center
Fri 09:32:06 AM 31.4186 -81.0814 32° Northeast 404 465 37,000  Level Jacksonville Center
Fri 09:33:06 AM 31.5158 -81.0136 31° Northeast 404 465 37,000  Level Jacksonville Center
Fri 09:34:06 AM 31.6067 -80.9508 30° Northeast 404 465 37,000  Level Jacksonville Center
Fri 09:35:06 AM 31.7161 -80.8753 30° Northeast 404 465 37,000  Level Jacksonville Center
Fri 09:36:06 AM 31.8111 -80.8072 31° Northeast 404 465 37,000  Level Jacksonville Center
Fri 09:37:06 AM 31.9122 -80.7364 31° Northeast 399 459 37,000  Level Jacksonville Center
Fri 09:38:06 AM 32.0092 -80.6706 30° Northeast 399 459 37,000  Level Jacksonville Center
Fri 09:39:06 AM 32.1000 -80.6094 30° Northeast 399 459 37,000  Level Jacksonville Center
Fri 09:40:06 AM 32.1989 -80.5381 31° Northeast 399 459 37,000  Level Jacksonville Center
Fri 09:41:06 AM 32.2958 -80.4669 32° Northeast 399 459 37,000  Level Jacksonville Center
Fri 09:42:06 AM 32.3967 -80.3953 31° Northeast 404 465 37,000  Level Jacksonville Center
Fri 09:43:06 AM 32.4953 -80.3236 32° Northeast 404 465 37,000  Level Jacksonville Center
Fri 09:44:06 AM 32.5942 -80.2517 32° Northeast 404 465 37,000  Level Jacksonville Center
Fri 09:45:06 AM 32.6947 -80.1797 31° Northeast 409 471 37,000  Level Jacksonville Center
Fri 09:46:06 AM 32.8036 -80.0972 32° Northeast 419 482 37,000  Level Jacksonville Center
Fri 09:47:06 AM 32.9042 -80.0225 32° Northeast 424 488 37,000  Level Jacksonville Center
Fri 09:48:06 AM 32.9983 -79.9328 39° Northeast 424 488 37,000  Level Jacksonville Center
Fri 09:49:06 AM 33.0900 -79.8456 39° Northeast 424 488 37,000  Level Jacksonville Center
Fri 09:50:06 AM 33.1819 -79.7581 39° Northeast 424 488 37,000  Level Jacksonville Center
Fri 09:51:06 AM 33.2714 -79.6703 39° Northeast 424 488 37,000  Level Jacksonville Center
Fri 09:52:06 AM 33.3631 -79.5825 39° Northeast 418 481 37,000  Level Jacksonville Center
Fri 09:53:06 AM 33.4525 -79.4944 39° Northeast 418 481 37,000  Level Jacksonville Center
Fri 09:54:06 AM 33.5442 -79.4064 39° Northeast 418 481 37,000  Level Jacksonville Center
Fri 09:55:06 AM 33.6356 -79.3153 40° Northeast 418 481 37,000  Level Jacksonville Center
Fri 09:56:06 AM 33.7208 -79.2319 39° Northeast 418 481 37,000  Level Jacksonville Center
Fri 09:57:06 AM 33.8139 -79.1406 39° Northeast 411 473 37,000  Level Jacksonville Center
Fri 09:59:22 AM 34.0122 -78.9439 39° Northeast 436 502 37,000  Level Washington Center
Fri 10:00:22 AM 34.1044 -78.8547 39° Northeast 436 502 37,000  Level Washington Center
Fri 10:01:20 AM 34.1967 -78.7631 39° Northeast 436 502 37,000  Level Washington Center
Fri 10:02:21 AM 34.2886 -78.6711 40° Northeast 436 502 37,000  Level Washington Center
Fri 10:03:22 AM 34.3828 -78.5789 39° Northeast 436 502 37,000  Level Washington Center
Fri 10:04:23 AM 34.4833 -78.4769 40° Northeast 436 502 37,000  Level Washington Center
Fri 10:05:23 AM 34.5775 -78.3792 41° Northeast 438 504 37,000  Level Washington Center
Fri 10:06:22 AM 34.6714 -78.2867 39° Northeast 438 504 37,000  Level Washington Center
Fri 10:07:22 AM 34.7714 -78.2039 34° Northeast 433 498 37,000  Level Washington Center
Fri 10:08:23 AM 34.8692 -78.1208 35° Northeast 433 498 37,000  Level Washington Center
Fri 10:09:21 AM 34.9731 -78.0406 32° Northeast 433 498 37,000  Level Washington Center
Fri 10:10:22 AM 35.0747 -77.9572 34° Northeast 433 498 37,000  Level Washington Center
Fri 10:11:23 AM 35.1744 -77.8764 34° Northeast 433 498 37,000  Level Washington Center
Fri 10:12:21 AM 35.2783 -77.7953 33° Northeast 433 498 37,000  Level Washington Center
Fri 10:13:22 AM 35.3778 -77.7142 34° Northeast 433 498 37,000  Level Washington Center
Fri 10:14:22 AM 35.4814 -77.6328 33° Northeast 433 498 37,000  Level Washington Center
Fri 10:15:23 AM 35.5850 -77.5483 34° Northeast 438 504 37,000  Level Washington Center
Fri 10:16:22 AM 35.6867 -77.4667 33° Northeast 438 504 37,000  Level Washington Center
Fri 10:17:22 AM 35.7881 -77.3844 33° Northeast 438 504 37,000  Level Washington Center
Fri 10:18:23 AM 35.8914 -77.3022 33° Northeast 444 511 37,000  Level Washington Center
Fri 10:19:23 AM 35.9928 -77.2169 34° Northeast 444 511 37,000  Level Washington Center
Fri 10:20:20 AM 36.0961 -77.1344 33° Northeast 444 511 37,000  Level Washington Center
Fri 10:21:21 AM 36.1825 -77.0614 34° Northeast 434 499 37,000  Level Washington Center
Fri 10:22:21 AM 36.2858 -76.9756 34° Northeast 434 499 37,000  Level Washington Center
Fri 10:23:23 AM 36.3869 -76.8922 34° Northeast 439 505 37,000  Level Washington Center
Fri 10:24:21 AM 36.4900 -76.8061 34° Northeast 444 511 37,000  Level Washington Center
Fri 10:25:21 AM 36.5931 -76.7225 33° Northeast 444 511 37,000  Level Washington Center
Fri 10:26:22 AM 36.6961 -76.6358 34° Northeast 444 511 37,000  Level Washington Center
Fri 10:27:21 AM 36.8053 -76.5389 35° Northeast 444 511 37,000  Level Washington Center
Fri 10:28:21 AM 36.9083 -76.4492 35° Northeast 444 511 37,000  Level Washington Center
Fri 10:29:22 AM 37.0089 -76.3644 34° Northeast 444 511 37,000  Level Washington Center
Fri 10:30:22 AM 37.1117 -76.2769 34° Northeast 444 511 37,000  Level Washington Center
Fri 10:31:20 AM 37.2164 -76.1864 35° Northeast 444 511 37,000  Level Washington Center
Fri 10:32:22 AM 37.3233 -76.1064 31° Northeast 444 511 37,000  Level Washington Center
Fri 10:33:22 AM 37.4258 -76.0181 34° Northeast 444 511 37,000  Level Washington Center
Fri 10:34:21 AM 37.5303 -75.9269 35° Northeast 444 511 37,000  Level Washington Center
Fri 10:35:21 AM 37.6328 -75.8383 34° Northeast 444 511 37,000  Level Washington Center
Fri 10:36:21 AM 37.7372 -75.7494 34° Northeast 444 511 37,000  Level Washington Center
Fri 10:37:23 AM 37.8394 -75.6600 35° Northeast 444 511 37,000  Level Washington Center
Fri 10:38:20 AM 37.9436 -75.5681 35° Northeast 444 511 37,000  Level Washington Center
Fri 10:39:22 AM 38.0458 -75.4783 35° Northeast 444 511 37,000  Level Washington Center
Fri 10:40:22 AM 38.1458 -75.3778 38° Northeast 450 518 37,000  Level Washington Center
Fri 10:41:23 AM 38.2269 -75.2561 50° Northeast 450 518 37,000  Level Washington Center
Fri 10:42:21 AM 38.3097 -75.1314 50° Northeast 450 518 37,000  Level Washington Center
Fri 10:43:21 AM 38.4075 -75.0272 40° Northeast 450 518 37,000  Level Washington Center
Fri 10:44:22 AM 38.5069 -74.9258 39° Northeast 450 518 37,000  Level Washington Center
Fri 10:45:22 AM 38.6022 -74.8239 40° Northeast 450 518 37,000  Level Washington Center
Fri 10:46:23 AM 38.6994 -74.7219 39° Northeast 444 511 37,000  Level Washington Center
Fri 10:47:21 AM 38.7989 -74.6219 38° Northeast 444 511 37,000  Level Washington Center
Fri 10:48:21 AM 38.8958 -74.5194 39° Northeast 444 511 37,000  Level Washington Center
Fri 10:49:22 AM 38.9889 -74.4192 40° Northeast 444 511 37,000  Level Washington Center
Fri 10:50:22 AM 39.0878 -74.3161 39° Northeast 444 511 37,000  Level Washington Center
Fri 10:52:16 AM 39.2664 -74.1278 39° Northeast 450 518 37,000  Level Boston Center
Fri 10:53:17 AM 39.3636 -74.0228 40° Northeast 455 524 37,000  Level Boston Center
Fri 10:54:18 AM 39.4608 -73.9203 39° Northeast 455 524 37,000  Level Boston Center
Fri 10:55:16 AM 39.5603 -73.8122 40° Northeast 455 524 37,000  Level Boston Center
Fri 10:56:17 AM 39.6594 -73.7067 39° Northeast 455 524 37,000  Level Boston Center
Fri 10:57:17 AM 39.7564 -73.6006 40° Northeast 455 524 37,000  Level Boston Center
Fri 10:58:17 AM 39.8531 -73.4967 40° Northeast 455 524 37,000 -248 Level Boston Center
Fri 10:59:18 AM 39.9606 -73.3819 39° Northeast 450 518 36,500 -756 Descending Boston Center
Fri 11:00:16 AM 40.0614 -73.2778 38° Northeast 450 518 35,500 -1,008 Descending Boston Center
Fri 11:01:17 AM 40.1600 -73.1650 41° Northeast 457 526 34,500 -1,339 Descending Boston Center
Fri 11:02:17 AM 40.2522 -73.0600 41° Northeast 462 532 32,800 -2,200 Descending Boston Center
Fri 11:03:17 AM 40.3528 -72.9467 41° Northeast 468 539 30,100 -2,479 Descending Boston Center
Fri 11:04:18 AM 40.4511 -72.8383 40° Northeast 463 533 27,800 -2,182 Descending Boston Center
Fri 11:05:18 AM 40.5453 -72.7322 41° Northeast 458 527 25,700 -2,288 Descending Boston Center
Fri 11:06:16 AM 40.6308 -72.6178 45° Northeast 447 514 23,300 -2,339 Descending Boston Center
Fri 11:07:16 AM 40.7042 -72.4919 52° Northeast 434 499 21,100 -2,182 Descending Boston Center
Fri 11:08:17 AM 40.7789 -72.3689 51° Northeast 428 493 18,900 -2,066 Descending Boston Center
Fri 11:09:18 AM 40.8497 -72.2508 52° Northeast 417 480 16,900 -2,131 Descending Boston Center
Fri 11:10:04 AM 40.9100 -72.1544 50° Northeast 407 468 15,100 -2,106 Descending Boston Center
Fri 11:10:52 AM 40.9639 -72.0692 50° Northeast 381 438 13,600 -2,037 Descending Boston Center
Fri 11:11:53 AM 41.0281 -71.9586 52° Northeast 380 437 11,400 -1,688 Descending Boston Center
Fri 11:13:00 AM 41.1047 -71.8369 50° Northeast 362 417 10,000 -1,039 Descending Boston Center
Fri 11:14:00 AM 41.1625 -71.7453 50° Northeast 310 357 9,200 -1,077 Descending Boston Center
Fri 11:14:57 AM 41.2139 -71.6592 52° Northeast 323 372 7,900 -1,393 Descending Boston Center
Fri 11:15:52 AM 41.2675 -71.5756 50° Northeast 316 364 6,600 -1,345 Descending Boston Center
Fri 11:16:53 AM 41.3211 -71.4892 50° Northeast 309 356 5,300 -803 Descending Boston Center
Fri 11:17:59 AM 41.3911 -71.4053 42° Northeast 282 325 4,900 -134 Descending Boston Center
Fri 11:19:07 AM 41.4636 -71.3431 33° Northeast 290 334 5,000  Climbing Boston Center
Fri 11:20:13 AM 41.5442 -71.2919 25° Northeast 260 299 4,900 -188 Descending Boston Center
Fri 11:21:15 AM 41.6189 -71.2572 19° North 270 311 4,600 -443 Descending Boston Center
Fri 11:22:15 AM 41.6853 -71.2253 20° North 259 298 4,000 -600 Descending Boston Center
Fri 11:23:15 AM 41.7519 -71.2100 10° North 233 268 3,400 -744 Descending Boston Center
Fri 11:24:16 AM 41.8206 -71.1978 North 227 261 2,500 -645 Descending Boston Center
Fri 11:25:16 AM 41.8708 -71.2272 336° Northwest 213 245 2,100 -209 Descending Boston Center
Fri 11:26:11 AM 41.8817 -71.2800 285° West 164 189 2,100 -52 Level Boston Center
Fri 11:27:11 AM 41.8489 -71.3253 226° Southwest 152 175 2,000 -97 Descending Boston Center
Fri 11:28:15 AM 41.8136 -71.3511 209° Southwest 149 171 1,900 -303 Descending Boston Center
Fri 11:29:10 AM 41.7889 -71.3708 211° Southwest 102 117 1,400 -574 Descending Boston Center
Fri 11:30:10 AM 41.7619 -71.3964 215° Southwest 118 136 800 -626 Descending Boston Center
Fri 11:31:05 AM 41.7331 -71.4219 213° Southwest 131 151 200 -655 Descending Boston Center

Login

Don't have an account? Register now (free) for customized features, flight alerts, and more!